Time;durP1;ratioP1;P1;durP2;ratioP2;P2;SDS_P1;SDS_P2;PMS_P1;PMS_P2;Temp;Humidity;BMP_temperature;BMP_pressure;BME280_temperature;BME280_humidity;BME280_pressure;Samples;Min_cycle;Max_cycle;Signal;HPM_P1;HPM_P2
2023/09/28 00:00:37;;;;;;;5.90;2.90;;;;;;;18.09;100.00;101142.22;5092334;28;20050;-71
2023/09/28 00:03:07;;;;;;;7.32;3.25;;;;;;;18.12;100.00;101155.41;5073702;28;20036;-69
2023/09/28 00:05:32;;;;;;;8.60;3.30;;;;;;;18.06;100.00;101149.06;5073441;28;20462;-69
2023/09/28 00:08:00;;;;;;;5.43;3.03;;;;;;;17.97;100.00;101153.41;5073235;28;20040;-69
2023/09/28 00:10:26;;;;;;;12.23;3.47;;;;;;;18.01;100.00;101159.97;5073406;28;20036;-70
2023/09/28 00:12:53;;;;;;;5.32;3.00;;;;;;;18.05;100.00;101152.88;5088437;28;20504;-69
2023/09/28 00:15:20;;;;;;;7.20;2.75;;;;;;;18.03;100.00;101155.09;5093539;28;20028;-69
2023/09/28 00:17:47;;;;;;;4.22;2.78;;;;;;;18.03;100.00;101163.28;5093500;28;20028;-69
2023/09/28 00:20:18;;;;;;;8.85;3.08;;;;;;;18.06;100.00;101155.34;5093498;28;20024;-70
2023/09/28 00:22:51;;;;;;;2.70;2.50;;;;;;;18.09;100.00;101164.97;5092267;28;20123;-70
2023/09/28 00:25:19;;;;;;;4.28;2.70;;;;;;;18.07;100.00;101167.13;5093077;28;20051;-70
2023/09/28 00:27:47;;;;;;;4.70;2.70;;;;;;;18.14;100.00;101175.13;5084649;28;20492;-69
2023/09/28 00:30:18;;;;;;;5.78;3.45;;;;;;;18.17;100.00;101180.88;5089070;28;20082;-70
2023/09/28 00:32:45;;;;;;;3.13;2.83;;;;;;;18.13;100.00;101174.31;5093239;28;20020;-70
2023/09/28 00:35:11;;;;;;;5.18;2.60;;;;;;;18.15;100.00;101174.84;5090928;28;20123;-70
2023/09/28 00:37:36;;;;;;;4.90;3.20;;;;;;;18.15;100.00;101174.84;5092495;28;20099;-70
2023/09/28 00:40:19;;;;;;;5.40;2.78;;;;;;;18.16;100.00;101181.13;5092025;28;20039;-70
2023/09/28 00:42:48;;;;;;;9.30;3.08;;;;;;;18.19;100.00;101180.59;5082618;28;20028;-70
2023/09/28 00:45:14;;;;;;;3.67;2.75;;;;;;;18.15;100.00;101191.28;5085562;28;20054;-70
2023/09/28 00:47:40;;;;;;;5.43;3.08;;;;;;;18.13;100.00;101198.94;5092116;28;20523;-69
2023/09/28 00:50:16;;;;;;;4.53;3.03;;;;;;;18.06;100.00;101192.88;5092459;28;20034;-68
2023/09/28 00:52:43;;;;;;;5.47;2.90;;;;;;;18.01;100.00;101187.38;5091492;28;20106;-69
2023/09/28 00:55:10;;;;;;;4.72;2.72;;;;;;;18.05;100.00;101186.56;5092693;28;20475;-69
2023/09/28 00:57:37;;;;;;;3.80;2.90;;;;;;;17.96;100.00;101187.34;5092008;28;20016;-69
2023/09/28 01:00:26;;;;;;;5.80;3.08;;;;;;;17.97;100.00;101175.31;5091524;28;20032;-69
2023/09/28 01:02:54;;;;;;;3.53;2.90;;;;;;;17.84;100.00;101171.91;5091928;28;20032;-70
2023/09/28 01:05:20;;;;;;;4.63;3.00;;;;;;;17.83;100.00;101173.03;5092675;28;20024;-69
2023/09/28 01:07:46;;;;;;;3.85;2.78;;;;;;;17.83;100.00;101170.28;5086181;28;20028;-69
2023/09/28 01:10:14;;;;;;;4.53;2.70;;;;;;;17.88;100.00;101170.31;5071420;28;20086;-69
2023/09/28 01:12:41;;;;;;;4.10;3.03;;;;;;;17.88;100.00;101186.72;5072330;28;20472;-69
2023/09/28 01:15:11;;;;;;;5.40;2.97;;;;;;;17.79;100.00;101187.53;5082320;28;20032;-69
2023/09/28 01:17:39;;;;;;;4.28;3.00;;;;;;;17.80;100.00;101190.00;5091852;28;20111;-70
2023/09/28 01:20:19;;;;;;;7.70;3.08;;;;;;;17.86;100.00;101188.94;5092047;28;20502;-69
2023/09/28 01:22:50;;;;;;;7.43;2.95;;;;;;;17.84;100.00;101182.88;5092338;28;20548;-69
2023/09/28 01:25:19;;;;;;;4.88;2.88;;;;;;;17.80;100.00;101190.00;5090925;28;20039;-69
2023/09/28 01:27:46;;;;;;;7.43;3.05;;;;;;;17.78;100.00;101191.34;5090046;28;20479;-69
2023/09/28 01:30:12;;;;;;;4.53;2.90;;;;;;;17.75;100.00;101195.41;5090927;28;20044;-68
2023/09/28 01:32:38;;;;;;;6.30;3.30;;;;;;;17.67;100.00;101188.53;5092367;28;20121;-69
2023/09/28 01:35:04;;;;;;;5.82;3.00;;;;;;;17.71;100.00;101181.44;5092185;28;20495;-69
2023/09/28 01:37:39;;;;;;;5.28;3.15;;;;;;;17.54;100.00;101181.63;5091311;28;20113;-69
2023/09/28 01:40:05;;;;;;;6.22;3.03;;;;;;;17.63;100.00;101184.66;5091290;28;20444;-69
2023/09/28 01:42:30;;;;;;;7.28;3.00;;;;;;;17.56;100.00;101184.09;5090805;28;20028;-69
2023/09/28 01:44:56;;;;;;;5.78;2.88;;;;;;;17.62;100.00;101191.25;5092574;28;20474;-69
2023/09/28 01:47:21;;;;;;;6.88;3.10;;;;;;;17.64;100.00;101202.75;5096430;28;20032;-69
2023/09/28 01:49:47;;;;;;;6.28;3.35;;;;;;;17.66;100.00;101194.28;5096391;28;20032;-70
2023/09/28 01:52:12;;;;;;;6.10;3.10;;;;;;;17.61;100.00;101197.81;5094755;28;20494;-70
2023/09/28 01:54:37;;;;;;;5.53;3.20;;;;;;;17.63;100.00;101198.34;5093802;28;20048;-69
2023/09/28 01:57:03;;;;;;;5.75;3.08;;;;;;;17.60;100.00;101201.63;5093178;28;20100;-70
2023/09/28 01:59:28;;;;;;;6.63;3.22;;;;;;;17.56;100.00;101196.94;5076054;28;20036;-70
2023/09/28 02:01:53;;;;;;;5.95;3.10;;;;;;;17.48;100.00;101201.84;5073272;28;20032;-69
2023/09/28 02:04:19;;;;;;;7.25;3.00;;;;;;;17.42;100.00;101205.63;5089771;28;20519;-69
2023/09/28 02:06:44;;;;;;;9.30;3.28;;;;;;;17.41;100.00;101205.84;5095831;28;20020;-69
2023/09/28 02:09:11;;;;;;;6.35;3.10;;;;;;;17.39;100.00;101213.50;5095689;28;20027;-69
2023/09/28 02:11:43;;;;;;;5.32;3.10;;;;;;;17.44;100.00;101219.84;5095825;28;20058;-69
2023/09/28 02:14:11;;;;;;;6.38;3.08;;;;;;;17.39;100.00;101217.06;5093722;28;20044;-69
2023/09/28 02:16:36;;;;;;;5.72;3.08;;;;;;;17.41;100.00;101233.22;5095852;28;20024;-69
2023/09/28 02:19:01;;;;;;;5.07;2.97;;;;;;;17.36;100.00;101217.59;5095501;28;20024;-69
2023/09/28 02:21:27;;;;;;;5.95;3.05;;;;;;;17.30;100.00;101219.47;5094077;28;20483;-69
2023/09/28 02:23:53;;;;;;;4.03;2.88;;;;;;;17.27;100.00;101216.41;5094752;28;20039;-69
2023/09/28 02:26:19;;;;;;;3.83;3.10;;;;;;;17.26;100.00;101212.06;5094196;28;20460;-69
2023/09/28 02:28:44;;;;;;;4.82;3.33;;;;;;;17.24;100.00;101215.06;5092893;28;20054;-68
2023/09/28 02:31:10;;;;;;;10.60;3.67;;;;;;;17.24;100.00;101219.69;5095323;28;20046;-68
2023/09/28 02:33:35;;;;;;;11.35;3.22;;;;;;;17.16;100.00;101221.81;5094488;28;20483;-69
2023/09/28 02:36:00;;;;;;;4.95;3.30;;;;;;;17.12;100.00;101222.59;5094607;28;20103;-69
2023/09/28 02:38:27;;;;;;;6.25;3.42;;;;;;;17.10;100.00;101222.84;5095566;28;20028;-70
2023/09/28 02:40:52;;;;;;;5.07;3.20;;;;;;;17.09;100.00;101234.88;5093991;28;20043;-70
2023/09/28 02:43:17;;;;;;;6.13;3.65;;;;;;;17.06;100.00;101223.63;5093305;28;20035;-70
2023/09/28 02:45:43;;;;;;;5.93;3.67;;;;;;;17.02;100.00;101223.31;5095388;28;20638;-70
2023/09/28 02:48:08;;;;;;;3.65;3.15;;;;;;;16.96;100.00;101219.72;5094820;28;20058;-69
2023/09/28 02:50:34;;;;;;;6.40;3.42;;;;;;;16.97;100.00;101223.28;5093539;28;20031;-69
2023/09/28 02:52:59;;;;;;;4.85;3.25;;;;;;;16.88;100.00;101233.00;5094011;28;20433;-70
2023/09/28 02:55:25;;;;;;;6.97;3.60;;;;;;;16.94;100.00;101231.97;5094953;28;20490;-70
2023/09/28 02:57:50;;;;;;;4.40;3.35;;;;;;;16.93;100.00;101233.09;5094225;28;20097;-69
2023/09/28 03:00:33;;;;;;;4.25;3.40;;;;;;;16.88;100.00;101233.88;5094812;28;20077;-69
2023/09/28 03:03:09;;;;;;;6.18;3.20;;;;;;;16.87;100.00;101236.84;5092829;28;20044;-69
2023/09/28 03:05:38;;;;;;;5.78;3.90;;;;;;;16.86;100.00;101240.63;5095030;28;20035;-69
2023/09/28 03:08:09;;;;;;;5.10;3.40;;;;;;;16.89;100.00;101240.97;5094658;28;20681;-69
2023/09/28 03:10:39;;;;;;;6.63;3.55;;;;;;;16.81;100.00;101241.41;5094674;28;20379;-69
2023/09/28 03:13:05;;;;;;;6.70;3.60;;;;;;;16.85;100.00;101242.53;5091821;28;20044;-69
2023/09/28 03:15:31;;;;;;;6.30;3.97;;;;;;;16.80;100.00;101242.47;5094461;28;20024;-68
2023/09/28 03:17:57;;;;;;;7.13;3.97;;;;;;;16.78;100.00;101250.94;5094322;28;20024;-69
2023/09/28 03:20:25;;;;;;;7.78;3.80;;;;;;;16.80;100.00;101243.31;5094304;28;20039;-70
2023/09/28 03:22:50;;;;;;;4.82;3.40;;;;;;;16.78;100.00;101248.19;5093493;28;20028;-70
2023/09/28 03:25:17;;;;;;;6.93;3.78;;;;;;;16.78;100.00;101256.41;5094386;28;20024;-69
2023/09/28 03:27:45;;;;;;;5.40;3.67;;;;;;;16.76;100.00;101261.31;5094474;28;20024;-68
2023/09/28 03:30:11;;;;;;;6.50;3.65;;;;;;;16.72;100.00;101260.16;5094301;28;20419;-69
2023/09/28 03:32:38;;;;;;;6.07;3.80;;;;;;;16.73;100.00;101263.75;5092503;28;20032;-69
2023/09/28 03:35:05;;;;;;;5.85;3.67;;;;;;;16.67;100.00;101268.31;5092853;28;20423;-69
2023/09/28 03:37:31;;;;;;;5.38;3.53;;;;;;;16.60;100.00;101264.94;5094312;28;20486;-69
2023/09/28 03:39:58;;;;;;;4.45;3.50;;;;;;;16.57;100.00;101273.66;5094149;28;20032;-68
2023/09/28 03:42:23;;;;;;;6.30;3.75;;;;;;;16.59;100.00;101282.41;5094010;28;20097;-68
2023/09/28 03:44:49;;;;;;;7.30;3.72;;;;;;;16.53;100.00;101280.69;5092921;28;20122;-69
2023/09/28 03:47:14;;;;;;;5.30;3.80;;;;;;;16.54;100.00;101285.09;5092860;28;20429;-69
2023/09/28 03:49:39;;;;;;;8.45;3.78;;;;;;;16.55;100.00;101289.47;5093319;28;20063;-69
2023/09/28 03:52:05;;;;;;;5.78;3.58;;;;;;;16.51;100.00;101293.78;5094165;28;20063;-69
2023/09/28 03:54:30;;;;;;;6.72;4.05;;;;;;;16.41;100.00;101297.22;5091028;28;20024;-69
2023/09/28 03:56:55;;;;;;;8.07;3.95;;;;;;;16.53;100.00;101295.19;5093672;28;20040;-70
2023/09/28 03:59:21;;;;;;;6.50;4.20;;;;;;;16.42;100.00;101286.03;5093300;28;20028;-69
2023/09/28 04:01:48;;;;;;;5.22;3.80;;;;;;;16.46;100.00;101287.19;5091268;28;20063;-69
2023/09/28 04:04:13;;;;;;;5.57;4.15;;;;;;;16.46;100.00;101295.38;5091530;28;20119;-69
2023/09/28 04:06:39;;;;;;;5.18;3.65;;;;;;;16.46;100.00;101291.81;5093727;28;20182;-69
2023/09/28 04:09:07;;;;;;;7.30;4.07;;;;;;;16.47;100.00;101296.19;5093472;28;20055;-69
2023/09/28 04:11:33;;;;;;;5.68;4.13;;;;;;;16.43;100.00;101297.78;5093395;28;20407;-70
2023/09/28 04:14:01;;;;;;;6.45;4.07;;;;;;;16.39;100.00;101307.56;5092226;28;20036;-69
2023/09/28 04:16:26;;;;;;;5.72;3.85;;;;;;;16.39;100.00;101297.47;5092364;28;20467;-69
2023/09/28 04:18:51;;;;;;;7.28;4.18;;;;;;;16.38;100.00;101294.97;5093567;28;20095;-69
2023/09/28 04:21:17;;;;;;;8.98;4.10;;;;;;;16.24;100.00;101292.63;5093302;28;20020;-69
2023/09/28 04:23:42;;;;;;;6.15;4.30;;;;;;;16.29;100.00;101300.06;5087677;28;20059;-70
2023/09/28 04:26:07;;;;;;;5.90;4.10;;;;;;;16.23;100.00;101303.78;5090206;28;20028;-70
2023/09/28 04:28:33;;;;;;;4.97;4.35;;;;;;;16.13;100.00;101297.13;5090899;28;20406;-69
2023/09/28 04:30:59;;;;;;;8.93;4.40;;;;;;;16.16;100.00;101300.44;5089448;28;20024;-70
2023/09/28 04:33:24;;;;;;;9.50;4.03;;;;;;;16.10;100.00;101300.34;5093182;28;20058;-70
2023/09/28 04:35:50;;;;;;;7.00;4.03;;;;;;;16.15;100.00;101307.78;5093200;28;20028;-70
2023/09/28 04:38:15;;;;;;;7.43;4.00;;;;;;;16.15;100.00;101309.69;5093055;28;20086;-69
2023/09/28 04:40:41;;;;;;;9.98;4.22;;;;;;;16.04;100.00;101312.28;5091440;28;20509;-69
2023/09/28 04:43:08;;;;;;;7.00;4.25;;;;;;;16.07;100.00;101314.50;5092676;28;20085;-69
2023/09/28 04:45:33;;;;;;;9.43;4.07;;;;;;;16.05;100.00;101313.13;5074827;28;20433;-69
2023/09/28 04:47:59;;;;;;;7.03;4.70;;;;;;;16.02;100.00;101328.09;5072799;28;20037;-69
2023/09/28 04:50:24;;;;;;;7.55;4.38;;;;;;;16.02;100.00;101325.34;5088268;28;20047;-68
2023/09/28 04:52:50;;;;;;;7.90;4.28;;;;;;;15.95;100.00;101319.22;5092905;28;20063;-69
2023/09/28 04:55:16;;;;;;;5.70;4.00;;;;;;;16.01;100.00;101311.97;5092954;28;20043;-69
2023/09/28 04:57:41;;;;;;;7.03;4.30;;;;;;;15.98;100.00;101312.47;5091501;28;20103;-69
2023/09/28 05:00:09;;;;;;;7.15;4.28;;;;;;;15.97;100.00;101328.00;5090658;28;20034;-70
2023/09/28 05:02:35;;;;;;;8.13;4.43;;;;;;;15.93;100.00;101337.78;5090534;28;20111;-69
2023/09/28 05:05:00;;;;;;;10.95;4.47;;;;;;;15.90;100.00;101343.72;5092753;28;20077;-68
2023/09/28 05:07:25;;;;;;;8.63;4.45;;;;;;;15.89;100.00;101352.97;5088814;28;20028;-69
2023/09/28 05:09:51;;;;;;;10.27;4.57;;;;;;;15.86;100.00;101358.94;5090997;28;20455;-69
2023/09/28 05:12:16;;;;;;;5.43;4.07;;;;;;;15.84;100.00;101356.47;5092218;28;20113;-69
2023/09/28 05:14:42;;;;;;;9.93;4.47;;;;;;;15.80;100.00;101360.75;5092570;28;20036;-69
2023/09/28 05:17:07;;;;;;;8.77;4.03;;;;;;;15.78;100.00;101362.91;5092394;28;20516;-70
2023/09/28 05:19:32;;;;;;;6.93;4.32;;;;;;;15.77;100.00;101366.66;5090865;28;20116;-69
2023/09/28 05:21:58;;;;;;;7.80;4.30;;;;;;;15.72;100.00;101361.97;5078947;28;20043;-69
2023/09/28 05:24:23;;;;;;;10.23;4.53;;;;;;;15.75;100.00;101375.09;5074056;28;20023;-70
2023/09/28 05:26:49;;;;;;;8.75;4.40;;;;;;;15.70;100.00;101377.75;5090917;28;20451;-70
2023/09/28 05:29:14;;;;;;;7.97;4.18;;;;;;;15.66;100.00;101392.13;5091284;28;20024;-70
2023/09/28 05:31:40;;;;;;;10.25;4.57;;;;;;;15.64;100.00;101392.38;5092448;28;20054;-70
2023/09/28 05:34:06;;;;;;;7.07;4.18;;;;;;;15.63;100.00;101388.00;5092356;28;20024;-70
2023/09/28 05:36:31;;;;;;;8.65;4.32;;;;;;;15.56;100.00;101393.59;5092164;28;20052;-70
2023/09/28 05:38:56;;;;;;;8.52;4.05;;;;;;;15.44;100.00;101392.00;5091105;28;20043;-70
2023/09/28 05:41:22;;;;;;;11.68;4.20;;;;;;;15.55;100.00;101391.94;5085182;28;20115;-69
2023/09/28 05:43:48;;;;;;;10.73;4.70;;;;;;;15.50;100.00;101394.56;5080834;28;20446;-70
2023/09/28 05:46:14;;;;;;;6.15;4.05;;;;;;;15.48;100.00;101395.91;5092208;28;20079;-69
2023/09/28 05:48:39;;;;;;;9.55;4.65;;;;;;;15.51;100.00;101409.88;5091578;28;20024;-70
2023/09/28 05:51:05;;;;;;;10.73;4.32;;;;;;;15.44;100.00;101409.19;5092056;28;20032;-69
2023/09/28 05:53:30;;;;;;;8.60;3.97;;;;;;;15.41;100.00;101406.94;5092035;28;20024;-69
2023/09/28 05:55:55;;;;;;;11.93;4.65;;;;;;;15.38;100.00;101408.28;5092290;28;20111;-69
2023/09/28 05:58:21;;;;;;;13.73;4.38;;;;;;;15.41;100.00;101413.25;5090980;28;20423;-69
2023/09/28 06:00:46;;;;;;;10.88;4.38;;;;;;;15.41;100.00;101426.03;5087987;28;20022;-70
2023/09/28 06:03:12;;;;;;;10.15;4.25;;;;;;;15.39;100.00;101431.72;5092014;28;20060;-70
2023/09/28 06:05:38;;;;;;;12.95;4.30;;;;;;;15.33;100.00;101429.16;5090824;28;20414;-69
2023/09/28 06:08:03;;;;;;;14.05;4.82;;;;;;;15.37;100.00;101430.34;5092181;28;20077;-70
2023/09/28 06:10:29;;;;;;;11.35;4.40;;;;;;;15.38;100.00;101432.81;5074948;28;20433;-70
2023/09/28 06:12:54;;;;;;;10.00;4.22;;;;;;;15.36;100.00;101426.78;5071891;28;20124;-69
2023/09/28 06:15:19;;;;;;;19.13;5.07;;;;;;;15.36;100.00;101421.31;5073486;28;20712;-69
2023/09/28 06:17:45;;;;;;;11.85;4.68;;;;;;;15.36;100.00;101420.50;5091743;28;20463;-70
2023/09/28 06:20:11;;;;;;;10.95;4.55;;;;;;;15.35;100.00;101430.59;5089335;28;20032;-70
2023/09/28 06:22:37;;;;;;;14.57;5.30;;;;;;;15.36;100.00;101426.78;5091738;28;20024;-70
2023/09/28 06:25:03;;;;;;;11.68;4.45;;;;;;;15.40;100.00;101443.50;5092024;28;20039;-70
2023/09/28 06:27:28;;;;;;;12.57;4.40;;;;;;;15.37;100.00;101439.34;5091689;28;20375;-68
2023/09/28 06:29:54;;;;;;;13.15;4.72;;;;;;;15.40;100.00;101446.22;5088321;28;20070;-69
2023/09/28 06:32:21;;;;;;;14.38;4.85;;;;;;;15.39;100.00;101448.09;5092945;28;20111;-69
2023/09/28 06:34:47;;;;;;;13.05;4.65;;;;;;;15.37;100.00;101457.63;5095505;28;20424;-70
2023/09/28 06:37:12;;;;;;;13.48;4.43;;;;;;;15.39;100.00;101467.19;5095232;28;20020;-70
2023/09/28 06:39:37;;;;;;;15.68;4.88;;;;;;;15.40;100.00;101466.13;5094447;28;20111;-69
2023/09/28 06:42:04;;;;;;;19.48;5.07;;;;;;;15.38;100.00;101451.91;5094585;28;20486;-70
2023/09/28 06:44:30;;;;;;;17.90;4.93;;;;;;;15.43;100.00;101459.38;5094875;28;20050;-69
2023/09/28 06:46:56;;;;;;;16.63;4.75;;;;;;;15.45;100.00;101456.41;5092590;28;20482;-69
2023/09/28 06:49:22;;;;;;;16.77;4.97;;;;;;;15.48;100.00;101456.72;5093222;28;20424;-69
2023/09/28 06:51:49;;;;;;;15.48;4.78;;;;;;;15.47;100.00;101468.69;5094988;28;20038;-70
2023/09/28 06:54:17;;;;;;;14.82;4.53;;;;;;;15.50;100.00;101481.03;5094856;28;20111;-69
2023/09/28 06:56:42;;;;;;;19.75;5.00;;;;;;;15.49;100.00;101482.09;5095454;28;20032;-69
2023/09/28 06:59:08;;;;;;;19.40;5.38;;;;;;;15.56;100.00;101490.97;5094145;28;20947;-70
2023/09/28 07:01:35;;;;;;;20.10;5.07;;;;;;;15.59;100.00;101483.16;5092709;28;20547;-69
2023/09/28 07:04:00;;;;;;;18.35;5.55;;;;;;;15.63;100.00;101493.56;5093751;28;20113;-69
2023/09/28 07:06:26;;;;;;;17.73;4.60;;;;;;;15.65;100.00;101502.34;5094780;28;20123;-69
2023/09/28 07:08:52;;;;;;;18.95;5.05;;;;;;;15.68;100.00;101505.38;5093865;28;20119;-68
2023/09/28 07:11:19;;;;;;;16.40;4.88;;;;;;;15.74;100.00;101498.13;5094137;28;20060;-68
2023/09/28 07:13:44;;;;;;;17.85;5.07;;;;;;;15.77;100.00;101492.19;5094776;28;20123;-69
2023/09/28 07:16:10;;;;;;;17.92;4.97;;;;;;;15.83;100.00;101482.25;5094513;28;20107;-70
2023/09/28 07:18:36;;;;;;;21.45;5.15;;;;;;;15.88;100.00;101487.78;5093074;28;20081;-71
2023/09/28 07:21:02;;;;;;;19.10;5.18;;;;;;;15.92;100.00;101494.41;5093731;28;20123;-71
2023/09/28 07:23:28;;;;;;;16.33;4.72;;;;;;;15.96;100.00;101487.41;5094444;28;20054;-71
2023/09/28 07:25:53;;;;;;;18.58;4.97;;;;;;;15.99;100.00;101484.19;5094817;28;20073;-70
2023/09/28 07:28:20;;;;;;;20.40;5.35;;;;;;;15.99;100.00;101480.59;5093048;28;20376;-69
2023/09/28 07:30:45;;;;;;;20.77;5.75;;;;;;;15.98;100.00;101490.69;5090338;28;20028;-70
2023/09/28 07:33:13;;;;;;;23.10;5.55;;;;;;;15.97;100.00;101501.88;5092816;28;20034;-70
2023/09/28 07:35:39;;;;;;;17.13;5.38;;;;;;;15.97;100.00;101513.59;5093577;28;20467;-70
2023/09/28 07:38:04;;;;;;;23.55;5.97;;;;;;;16.01;100.00;101517.50;5093618;28;20102;-70
2023/09/28 07:40:30;;;;;;;22.90;5.82;;;;;;;16.02;100.00;101510.13;5091857;28;20509;-70
2023/09/28 07:42:55;;;;;;;22.15;6.07;;;;;;;16.05;100.00;101513.22;5092097;28;20032;-70
2023/09/28 07:45:20;;;;;;;18.35;5.07;;;;;;;16.14;100.00;101527.31;5093624;28;20055;-70
2023/09/28 07:47:46;;;;;;;24.40;5.68;;;;;;;16.19;100.00;101526.56;5092690;28;20016;-70
2023/09/28 07:50:14;;;;;;;22.85;6.05;;;;;;;16.24;100.00;101522.00;5092559;28;20078;-70
2023/09/28 07:52:40;;;;;;;26.00;6.10;;;;;;;16.28;100.00;101525.09;5092947;28;20066;-69
2023/09/28 07:55:07;;;;;;;27.27;6.07;;;;;;;16.32;100.00;101522.66;5085821;28;20033;-70
2023/09/28 07:57:32;;;;;;;22.08;5.38;;;;;;;16.36;100.00;101527.38;5073119;28;20037;-67
2023/09/28 07:59:59;;;;;;;19.00;5.50;;;;;;;16.41;100.00;101535.69;5081155;28;20035;-67
2023/09/28 08:02:24;;;;;;;21.67;5.53;;;;;;;16.47;100.00;101534.69;5090360;28;20111;-69
2023/09/28 08:04:51;;;;;;;21.08;5.47;;;;;;;16.53;100.00;101542.97;5092528;28;20032;-68
2023/09/28 08:07:17;;;;;;;20.73;5.22;;;;;;;16.57;100.00;101547.69;5093515;28;20077;-68
2023/09/28 08:09:42;;;;;;;23.80;5.30;;;;;;;16.60;100.00;101549.09;5092422;28;20020;-68
2023/09/28 08:12:08;;;;;;;22.13;5.30;;;;;;;16.63;100.00;101548.59;5093192;28;20471;-68
2023/09/28 08:14:34;;;;;;;24.75;5.65;;;;;;;16.67;100.00;101557.97;5092941;28;20051;-69
2023/09/28 08:16:59;;;;;;;23.08;5.65;;;;;;;16.69;100.00;101547.59;5093139;28;20110;-68
2023/09/28 08:19:24;;;;;;;28.63;6.63;;;;;;;16.72;100.00;101547.09;5091002;28;20124;-68
2023/09/28 08:21:50;;;;;;;23.98;5.55;;;;;;;16.79;100.00;101546.94;5092462;28;20078;-66
2023/09/28 08:24:15;;;;;;;23.02;6.00;;;;;;;16.84;100.00;101544.28;5092781;28;20063;-71
2023/09/28 08:26:40;;;;;;;21.20;5.45;;;;;;;16.88;100.00;101547.38;5074732;28;20025;-71
2023/09/28 08:29:06;;;;;;;21.55;5.45;;;;;;;16.97;100.00;101556.81;5071341;28;20121;-69
2023/09/28 08:31:32;;;;;;;22.38;5.50;;;;;;;16.98;100.00;101556.56;5089426;28;20023;-69
2023/09/28 08:33:59;;;;;;;25.63;5.88;;;;;;;17.04;100.00;101565.66;5090637;28;20032;-69
2023/09/28 08:36:25;;;;;;;22.85;5.50;;;;;;;17.08;100.00;101558.63;5091197;28;20062;-69
2023/09/28 08:38:51;;;;;;;23.52;5.95;;;;;;;17.10;100.00;101561.91;5093413;28;20073;-69
2023/09/28 08:41:25;;;;;;;24.50;5.55;;;;;;;17.06;100.00;101574.47;5091551;28;20024;-67
2023/09/28 08:43:56;;;;;;;21.58;5.47;;;;;;;17.03;100.00;101585.91;5078510;28;20437;-67
2023/09/28 08:46:24;;;;;;;23.80;5.80;;;;;;;17.07;100.00;101586.22;5088228;28;20032;-67
2023/09/28 08:48:50;;;;;;;21.92;5.53;;;;;;;17.04;100.00;101579.31;5087764;28;20127;-67
2023/09/28 08:51:16;;;;;;;21.08;5.47;;;;;;;17.08;100.00;101591.44;5087829;28;20024;-72
2023/09/28 08:53:43;;;;;;;22.48;5.97;;;;;;;17.15;100.00;101592.09;5090718;28;20028;-71
2023/09/28 08:56:10;;;;;;;18.77;5.53;;;;;;;17.14;100.00;101593.16;5082648;28;20036;-67
2023/09/28 08:58:36;;;;;;;24.83;5.72;;;;;;;17.14;100.00;101587.69;5086789;28;20024;-68
2023/09/28 09:01:04;;;;;;;22.33;5.93;;;;;;;17.15;100.00;101593.97;5083869;28;20483;-71
2023/09/28 09:03:31;;;;;;;23.20;6.10;;;;;;;17.12;100.00;101597.22;5082384;28;20043;-68
2023/09/28 09:05:57;;;;;;;22.63;5.75;;;;;;;17.11;100.00;101588.19;5087957;28;20419;-67
2023/09/28 09:08:25;;;;;;;21.15;5.63;;;;;;;17.21;100.00;101594.88;5085013;28;20025;-68
2023/09/28 09:10:51;;;;;;;21.42;5.95;;;;;;;17.31;100.00;101597.78;5077382;28;20039;-67
2023/09/28 09:13:18;;;;;;;26.63;5.55;;;;;;;17.32;100.00;101596.69;5090637;28;20074;-68
2023/09/28 09:15:45;;;;;;;23.45;6.07;;;;;;;17.37;100.00;101596.75;5090321;28;20063;-70
2023/09/28 09:18:18;;;;;;;25.95;6.55;;;;;;;17.48;100.00;101603.19;5092535;28;20530;-69
2023/09/28 09:20:47;;;;;;;21.63;5.53;;;;;;;17.52;100.00;101591.50;5107615;28;20035;-71
2023/09/28 09:23:14;;;;;;;19.85;5.63;;;;;;;17.59;100.00;101598.69;5090716;28;20440;-69
2023/09/28 09:25:41;;;;;;;25.73;6.63;;;;;;;17.61;100.00;101597.34;5089388;28;20055;-68
2023/09/28 09:28:06;;;;;;;24.75;6.45;;;;;;;17.69;100.00;101604.28;5090311;28;20371;-67
2023/09/28 09:30:35;;;;;;;21.52;5.93;;;;;;;17.78;100.00;101607.41;5091312;28;20115;-72
2023/09/28 09:33:01;;;;;;;26.75;6.07;;;;;;;17.77;100.00;101605.75;5092324;28;20032;-68
2023/09/28 09:35:28;;;;;;;25.00;5.72;;;;;;;17.80;100.00;101607.97;5090544;28;20383;-69
2023/09/28 09:37:55;;;;;;;22.13;5.43;;;;;;;17.78;100.00;101602.75;5090455;28;20365;-71
2023/09/28 09:40:21;;;;;;;26.60;6.20;;;;;;;17.81;100.00;101602.25;5092289;28;20031;-68
2023/09/28 09:42:46;;;;;;;19.98;5.68;;;;;;;17.84;100.00;101600.91;5092147;28;20032;-69
2023/09/28 09:45:12;;;;;;;25.13;5.82;;;;;;;17.83;100.00;101596.50;5092074;28;20031;-70
2023/09/28 09:47:48;;;;;;;18.45;4.63;;;;;;;17.81;100.00;101607.72;5089920;28;20055;-69
2023/09/28 09:50:14;;;;;;;20.58;5.60;;;;;;;17.77;100.00;101611.22;5091580;28;20036;-70
2023/09/28 09:52:42;;;;;;;23.85;5.97;;;;;;;17.77;100.00;101614.81;5089986;28;20093;-69
2023/09/28 09:55:08;;;;;;;24.98;5.53;;;;;;;17.78;100.00;101618.38;5091830;28;20042;-69
2023/09/28 09:57:40;;;;;;;21.90;5.13;;;;;;;17.80;100.00;101625.25;5089265;28;20433;-68
2023/09/28 10:00:08;;;;;;;24.98;5.68;;;;;;;17.82;100.00;101611.31;5090852;28;20040;-69
2023/09/28 10:02:39;;;;;;;20.23;5.13;;;;;;;17.81;100.00;101613.19;5089840;28;20035;-69
2023/09/28 10:05:08;;;;;;;23.27;5.93;;;;;;;17.94;100.00;101608.47;5081829;28;20040;-69
2023/09/28 10:07:37;;;;;;;20.83;5.32;;;;;;;18.00;100.00;101612.91;5074725;28;20033;-70
2023/09/28 10:10:03;;;;;;;23.67;5.53;;;;;;;18.05;100.00;101602.81;5075789;28;20173;-70
2023/09/28 10:12:30;;;;;;;24.15;5.82;;;;;;;18.17;100.00;101596.38;5075173;28;20056;-72
2023/09/28 10:14:59;;;;;;;24.15;5.78;;;;;;;18.27;100.00;101592.91;5075510;28;20041;-74
2023/09/28 10:17:28;;;;;;;21.65;5.40;;;;;;;18.28;100.00;101589.09;5074460;28;20365;-73
2023/09/28 10:19:57;;;;;;;22.63;5.72;;;;;;;18.23;100.00;101589.88;5077953;28;20028;-70
2023/09/28 10:22:23;;;;;;;22.67;5.18;;;;;;;18.27;100.00;101579.22;5093267;28;20078;-70
2023/09/28 10:24:48;;;;;;;19.40;5.10;;;;;;;18.23;100.00;101571.50;5093933;28;20413;-69
2023/09/28 10:27:14;;;;;;;19.58;4.85;;;;;;;18.31;100.00;101572.13;5094522;28;20420;-70
2023/09/28 10:29:40;;;;;;;23.23;5.43;;;;;;;18.34;100.00;101572.47;5095435;28;20489;-72
2023/09/28 10:32:28;;;;;;;18.95;5.00;;;;;;;18.36;100.00;101574.94;5095743;28;20028;-70
2023/09/28 10:35:28;;;;;;;18.98;4.95;;;;;;;18.47;100.00;101582.16;5095656;28;20031;-70
2023/09/28 10:38:20;;;;;;;16.38;4.78;;;;;;;18.48;100.00;101586.56;5089838;28;20036;-68
2023/09/28 10:41:02;;;;;;;18.25;4.60;;;;;;;18.62;100.00;101595.19;5082495;28;20584;-69
2023/09/28 10:43:37;;;;;;;19.63;4.82;;;;;;;18.56;100.00;101591.56;5095238;28;20039;-68
2023/09/28 10:46:03;;;;;;;25.45;5.68;;;;;;;18.53;100.00;101592.06;5091366;28;20059;-69
2023/09/28 10:48:39;;;;;;;21.80;5.03;;;;;;;18.53;100.00;101597.56;5094755;28;20032;-69
2023/09/28 10:51:09;;;;;;;20.83;4.90;;;;;;;18.58;100.00;101594.03;5092616;28;20032;-69
2023/09/28 10:53:34;;;;;;;18.42;5.30;;;;;;;18.64;100.00;101594.91;5086185;28;20029;-74
2023/09/28 10:56:00;;;;;;;19.60;4.93;;;;;;;18.70;100.00;101593.88;5087637;28;20485;-74
2023/09/28 10:58:27;;;;;;;21.00;5.00;;;;;;;18.71;100.00;101587.31;5095183;28;20040;-73
2023/09/28 11:00:52;;;;;;;18.35;4.97;;;;;;;18.72;100.00;101599.91;5092849;28;20032;-74
2023/09/28 11:03:17;;;;;;;15.98;4.93;;;;;;;18.68;100.00;101601.53;5095294;28;20082;-73
2023/09/28 11:05:43;;;;;;;16.13;4.30;;;;;;;18.68;100.00;101609.75;5094763;28;20085;-72
2023/09/28 11:08:08;;;;;;;20.17;5.25;;;;;;;18.70;100.00;101607.56;5095038;28;20085;-72
2023/09/28 11:10:34;;;;;;;18.15;4.55;;;;;;;18.71;100.00;101622.94;5092865;28;20376;-70
2023/09/28 11:12:59;;;;;;;17.55;4.30;;;;;;;18.73;100.00;101618.00;5092079;28;20044;-68